Time;durP1;ratioP1;P1;durP2;ratioP2;P2;SDS_P1;SDS_P2;PMS_P1;PMS_P2;Temp;Humidity;BMP_temperature;BMP_pressure;BME280_temperature;BME280_humidity;BME280_pressure;Samples;Min_cycle;Max_cycle;Signal;HPM_P1;HPM_P2
2022/08/22 00:00:13;;;;;;;0.73;0.40;;;11.80;99.90;;;;;;5030545;28;20032;-76
2022/08/22 00:03:05;;;;;;;2.28;0.32;;;11.90;99.90;;;;;;5032109;28;20049;-76
2022/08/22 00:05:59;;;;;;;1.50;0.35;;;12.00;99.90;;;;;;5032732;28;20028;-77
2022/08/22 00:08:49;;;;;;;0.73;0.50;;;12.00;99.90;;;;;;5030784;28;20029;-77
2022/08/22 00:11:45;;;;;;;1.08;0.50;;;12.10;99.90;;;;;;5032465;28;20079;-76
2022/08/22 00:14:23;;;;;;;0.80;0.50;;;12.20;99.90;;;;;;5031479;28;20071;-77
2022/08/22 00:17:03;;;;;;;1.38;0.30;;;12.30;99.90;;;;;;5031052;28;20040;-76
2022/08/22 00:19:46;;;;;;;0.82;0.30;;;12.40;99.90;;;;;;5031114;28;20018;-75
2022/08/22 00:22:29;;;;;;;0.32;0.30;;;12.50;99.90;;;;;;5031287;28;20067;-75
2022/08/22 00:25:30;;;;;;;2.05;0.50;;;12.60;99.90;;;;;;5031917;28;20025;-75
2022/08/22 00:28:07;;;;;;;2.63;0.50;;;12.70;99.90;;;;;;5015920;28;20042;-75
2022/08/22 00:30:56;;;;;;;0.75;0.43;;;12.80;99.90;;;;;;5031015;28;20032;-75
2022/08/22 00:33:40;;;;;;;0.75;0.50;;;12.90;99.90;;;;;;5032320;28;20083;-76
2022/08/22 00:36:22;;;;;;;0.73;0.30;;;13.10;99.90;;;;;;5032285;28;20014;-76
2022/08/22 00:39:13;;;;;;;0.50;0.30;;;13.10;99.90;;;;;;5032264;28;20029;-76
2022/08/22 00:42:05;;;;;;;0.60;0.38;;;13.30;99.90;;;;;;5025237;28;20386;-76
2022/08/22 00:44:57;;;;;;;0.25;0.25;;;13.50;99.90;;;;;;5031846;28;20045;-75
2022/08/22 00:47:37;;;;;;;0.30;0.20;;;13.60;99.90;;;;;;5030964;28;20025;-76
2022/08/22 00:50:26;;;;;;;0.95;0.50;;;13.70;99.90;;;;;;5031609;28;20053;-75
2022/08/22 00:53:14;;;;;;;0.63;0.40;;;13.70;99.90;;;;;;5032216;28;20022;-76
2022/08/22 00:56:01;;;;;;;0.52;0.40;;;13.90;99.90;;;;;;5031822;28;20020;-76
2022/08/22 00:58:58;;;;;;;0.88;0.70;;;13.90;99.90;;;;;;5031553;28;20379;-74
2022/08/22 01:01:36;;;;;;;0.43;0.30;;;14.10;99.90;;;;;;5011975;28;20373;-75
2022/08/22 01:04:28;;;;;;;0.98;0.40;;;14.10;99.90;;;;;;5032342;28;20083;-76
2022/08/22 01:07:14;;;;;;;1.27;0.40;;;14.20;99.90;;;;;;5031033;28;20112;-75
2022/08/22 01:10:16;;;;;;;1.08;0.40;;;14.30;99.90;;;;;;5031822;28;20018;-76
2022/08/22 01:13:14;;;;;;;1.08;0.68;;;14.40;99.90;;;;;;5018368;28;20137;-76
2022/08/22 01:15:44;;;;;;;1.02;0.55;;;14.50;99.90;;;;;;5031261;28;20022;-76
2022/08/22 01:18:47;;;;;;;0.40;0.40;;;14.60;99.90;;;;;;5015713;28;20036;-74
2022/08/22 01:21:52;;;;;;;2.22;0.98;;;14.80;99.90;;;;;;5035443;28;20100;-75
2022/08/22 01:24:35;;;;;;;5.35;0.50;;;14.80;99.90;;;;;;5031347;28;20045;-78
2022/08/22 01:27:26;;;;;;;0.50;0.50;;;14.90;99.90;;;;;;5035625;28;20378;-76
2022/08/22 01:30:19;;;;;;;0.77;0.40;;;15.00;99.90;;;;;;5029469;28;20036;-75
2022/08/22 01:33:23;;;;;;;1.20;0.50;;;15.10;99.90;;;;;;5035477;28;20039;-76
2022/08/22 01:36:02;;;;;;;1.08;0.40;;;15.20;99.90;;;;;;5017650;28;20565;-77
2022/08/22 01:38:51;;;;;;;1.80;0.90;;;15.30;99.90;;;;;;5033866;28;20014;-75
2022/08/22 01:41:40;;;;;;;0.75;0.50;;;15.40;99.90;;;;;;5034992;28;20098;-76
2022/08/22 01:44:23;;;;;;;2.97;0.60;;;15.40;99.90;;;;;;5015763;28;20505;-74
2022/08/22 01:47:05;;;;;;;1.27;0.60;;;15.40;99.90;;;;;;5034188;28;20041;-74
2022/08/22 01:50:01;;;;;;;1.10;0.40;;;15.40;99.90;;;;;;5016536;28;20014;-74
2022/08/22 01:53:10;;;;;;;3.42;0.65;;;15.50;99.90;;;;;;5033902;28;20034;-74
2022/08/22 01:55:44;;;;;;;1.75;0.55;;;15.60;99.90;;;;;;5024364;28;20117;-74
2022/08/22 01:58:19;;;;;;;3.03;0.50;;;15.70;99.90;;;;;;5034165;28;20022;-74
2022/08/22 02:01:08;;;;;;;0.60;0.40;;;15.70;99.90;;;;;;5033337;28;20447;-74
2022/08/22 02:04:09;;;;;;;1.52;0.50;;;15.80;99.90;;;;;;5034160;28;20167;-73
2022/08/22 02:07:00;;;;;;;2.45;0.75;;;15.90;99.90;;;;;;5034535;28;20037;-73
2022/08/22 02:09:43;;;;;;;3.35;0.30;;;16.00;99.90;;;;;;4992845;28;20045;-74
2022/08/22 02:12:36;;;;;;;0.65;0.30;;;16.10;99.90;;;;;;5033461;28;20494;-74
2022/08/22 02:15:20;;;;;;;0.40;0.30;;;16.20;99.90;;;;;;5032753;28;20021;-74
2022/08/22 02:18:08;;;;;;;1.45;0.45;;;16.30;99.90;;;;;;5033070;28;20048;-73
2022/08/22 02:20:57;;;;;;;0.40;0.30;;;16.40;99.90;;;;;;5027149;28;20033;-74
2022/08/22 02:23:36;;;;;;;0.35;0.30;;;16.50;99.90;;;;;;5032579;28;20024;-74
2022/08/22 02:26:08;;;;;;;2.25;0.45;;;16.60;99.90;;;;;;5035168;28;20037;-73
2022/08/22 02:29:00;;;;;;;1.02;0.40;;;16.60;99.90;;;;;;5034322;28;20097;-72
2022/08/22 02:32:07;;;;;;;0.55;0.22;;;16.70;99.90;;;;;;5017187;28;20033;-72
2022/08/22 02:35:22;;;;;;;0.45;0.30;;;16.70;99.90;;;;;;5033661;28;20049;-74
2022/08/22 02:38:07;;;;;;;0.90;0.20;;;16.80;99.90;;;;;;4964186;28;20015;-72
2022/08/22 02:40:54;;;;;;;3.13;0.40;;;16.80;99.90;;;;;;4966097;28;20019;-74
2022/08/22 02:43:28;;;;;;;;;;;16.80;99.90;;;;;;5020274;28;20017;-74
2022/08/22 02:46:26;;;;;;;0.30;0.30;;;16.90;99.90;;;;;;5034759;28;19905;-73
2022/08/22 02:48:54;;;;;;;1.45;0.30;;;16.90;99.90;;;;;;5033508;28;20028;-72
2022/08/22 02:51:26;;;;;;;0.90;0.20;;;16.90;99.90;;;;;;5034458;28;20390;-73
2022/08/22 02:54:07;;;;;;;0.52;0.40;;;16.90;99.90;;;;;;5034734;28;20423;-73
2022/08/22 02:57:17;;;;;;;0.60;0.30;;;16.90;99.90;;;;;;5033274;28;20370;-74
2022/08/22 03:00:14;;;;;;;1.02;0.30;;;17.00;99.90;;;;;;5001096;28;20040;-73
2022/08/22 03:03:14;;;;;;;0.30;0.20;;;17.00;99.90;;;;;;5032983;28;20044;-74
2022/08/22 03:05:48;;;;;;;1.02;0.32;;;17.10;99.90;;;;;;5032772;28;20056;-72
2022/08/22 03:08:24;;;;;;;1.23;0.68;;;17.10;99.90;;;;;;5034307;28;20026;-73
2022/08/22 03:10:59;;;;;;;0.57;0.30;;;17.20;99.90;;;;;;5031694;28;20065;-72
2022/08/22 03:14:02;;;;;;;2.27;0.30;;;17.20;99.90;;;;;;5030110;28;20482;-73
2022/08/22 03:16:57;;;;;;;0.32;0.28;;;17.30;99.90;;;;;;5031464;28;20104;-72
2022/08/22 03:19:42;;;;;;;0.50;0.30;;;17.40;99.90;;;;;;5030915;28;20021;-73
2022/08/22 03:22:18;;;;;;;1.60;0.30;;;17.40;99.90;;;;;;5014378;28;20055;-72
2022/08/22 03:25:11;;;;;;;0.30;0.30;;;17.40;99.90;;;;;;5031612;28;20111;-72
2022/08/22 03:27:55;;;;;;;0.25;0.17;;;17.40;99.90;;;;;;5033215;28;20189;-74
2022/08/22 03:30:28;;;;;;;1.45;0.40;;;17.40;99.90;;;;;;5033351;28;20024;-74
2022/08/22 03:33:11;;;;;;;0.40;0.20;;;17.50;99.90;;;;;;5033656;28;20025;-73
2022/08/22 03:35:56;;;;;;;0.77;0.50;;;17.50;99.90;;;;;;5015095;28;20025;-73
2022/08/22 03:38:27;;;;;;;0.85;0.45;;;17.60;99.90;;;;;;5033878;28;20025;-73
2022/08/22 03:41:10;;;;;;;0.75;0.30;;;17.60;99.90;;;;;;5031349;28;20155;-73
2022/08/22 03:43:43;;;;;;;0.20;0.20;;;17.70;99.90;;;;;;5033104;28;20026;-74
2022/08/22 03:46:42;;;;;;;0.40;0.30;;;17.60;99.70;;;;;;5030868;28;20060;-73
2022/08/22 03:49:25;;;;;;;2.72;0.30;;;17.60;99.90;;;;;;5031629;28;20475;-72
2022/08/22 03:52:15;;;;;;;1.25;0.40;;;17.60;99.50;;;;;;5031867;28;20034;-72
2022/08/22 03:54:46;;;;;;;0.40;0.30;;;17.70;99.20;;;;;;5011667;28;20076;-72
2022/08/22 03:57:47;;;;;;;0.28;0.28;;;17.60;99.00;;;;;;5033577;28;20055;-72
2022/08/22 04:00:29;;;;;;;0.20;0.20;;;17.50;99.40;;;;;;5031935;28;20494;-73
2022/08/22 04:03:13;;;;;;;1.65;0.40;;;17.60;99.70;;;;;;5032059;28;20045;-71
2022/08/22 04:05:53;;;;;;;1.58;0.40;;;17.50;99.60;;;;;;5032900;28;20053;-72
2022/08/22 04:08:57;;;;;;;0.35;0.32;;;17.60;99.90;;;;;;5033254;28;20028;-72
2022/08/22 04:12:09;;;;;;;0.30;0.20;;;17.50;98.90;;;;;;5033013;28;20033;-72
2022/08/22 04:14:50;;;;;;;0.22;0.17;;;17.50;99.90;;;;;;5021346;28;20033;-71
2022/08/22 04:17:33;;;;;;;0.82;0.30;;;17.50;99.90;;;;;;5033667;28;20556;-71
2022/08/22 04:20:25;;;;;;;0.45;0.20;;;17.40;99.90;;;;;;5034242;28;20018;-72
2022/08/22 04:23:34;;;;;;;0.47;0.17;;;17.50;99.90;;;;;;5033617;28;20459;-72
2022/08/22 04:26:11;;;;;;;0.50;0.32;;;17.50;99.90;;;;;;5027805;28;20110;-71
2022/08/22 04:28:48;;;;;;;1.27;0.30;;;17.50;99.90;;;;;;5033923;28;20522;-72
2022/08/22 04:31:29;;;;;;;1.88;0.50;;;17.50;99.90;;;;;;5015803;28;20033;-72
2022/08/22 04:34:30;;;;;;;0.60;0.28;;;17.50;99.60;;;;;;5033759;28;20017;-72
2022/08/22 04:37:22;;;;;;;0.90;0.35;;;17.50;99.90;;;;;;5026514;28;20033;-72
2022/08/22 04:40:02;;;;;;;0.88;0.20;;;17.50;99.30;;;;;;5033040;28;20025;-71
2022/08/22 04:42:49;;;;;;;1.23;0.50;;;17.50;99.30;;;;;;5033561;28;20035;-73
2022/08/22 04:45:31;;;;;;;0.57;0.25;;;17.40;99.40;;;;;;5033585;28;20058;-72
2022/08/22 04:48:08;;;;;;;0.63;0.35;;;17.40;99.90;;;;;;5033316;28;20025;-72
2022/08/22 04:50:53;;;;;;;1.55;0.40;;;17.40;99.90;;;;;;5033532;28;20025;-71
2022/08/22 04:53:55;;;;;;;3.28;0.43;;;17.40;99.90;;;;;;5035930;28;20029;-71
2022/08/22 04:56:38;;;;;;;0.20;0.20;;;17.40;99.60;;;;;;5037834;28;20380;-72
2022/08/22 04:59:12;;;;;;;1.27;0.30;;;17.40;99.60;;;;;;5037176;28;20025;-71
2022/08/22 05:01:53;;;;;;;0.30;0.30;;;17.40;99.90;;;;;;5037402;28;20032;-74
2022/08/22 05:04:28;;;;;;;3.10;0.28;;;17.40;99.90;;;;;;5037209;28;20038;-73
2022/08/22 05:07:10;;;;;;;0.30;0.20;;;17.40;99.90;;;;;;5036771;28;20021;-73
2022/08/22 05:09:44;;;;;;;0.35;0.22;;;17.30;99.90;;;;;;5037031;28;20026;-73
2022/08/22 05:12:18;;;;;;;0.28;0.25;;;17.40;99.90;;;;;;5037115;28;20052;-73
2022/08/22 05:15:01;;;;;;;4.43;0.73;;;17.30;99.90;;;;;;5036803;28;20053;-73
2022/08/22 05:17:31;;;;;;;0.50;0.45;;;17.30;99.90;;;;;;5037055;28;20030;-74
2022/08/22 05:20:06;;;;;;;0.30;0.30;;;17.30;99.30;;;;;;5036854;28;20376;-74
2022/08/22 05:22:40;;;;;;;0.45;0.30;;;17.30;99.30;;;;;;5036402;28;20040;-75
2022/08/22 05:25:12;;;;;;;0.40;0.22;;;17.30;99.20;;;;;;5034499;28;20053;-75
2022/08/22 05:27:45;;;;;;;0.25;0.20;;;17.30;98.80;;;;;;5036313;28;20017;-75
2022/08/22 05:30:22;;;;;;;1.00;0.38;;;17.30;98.80;;;;;;5036158;28;20155;-74
2022/08/22 05:33:05;;;;;;;0.77;0.20;;;17.20;99.10;;;;;;5036478;28;20029;-75
2022/08/22 05:35:45;;;;;;;0.80;0.20;;;17.20;99.10;;;;;;5036417;28;20382;-74
2022/08/22 05:38:18;;;;;;;6.93;0.52;;;17.20;99.90;;;;;;5036811;28;20079;-74
2022/08/22 05:40:54;;;;;;;1.30;0.20;;;17.10;99.80;;;;;;5036365;28;20030;-75
2022/08/22 05:43:25;;;;;;;0.50;0.20;;;17.10;99.30;;;;;;5036186;28;20082;-75
2022/08/22 05:45:57;;;;;;;0.70;0.40;;;17.10;99.20;;;;;;5036566;28;20026;-75
2022/08/22 05:48:45;;;;;;;0.82;0.25;;;17.10;99.30;;;;;;5036236;28;20025;-74
2022/08/22 05:51:20;;;;;;;0.30;0.30;;;17.00;99.20;;;;;;5036448;28;20030;-75
2022/08/22 05:54:02;;;;;;;0.40;0.28;;;17.00;99.50;;;;;;5036306;28;20063;-75
2022/08/22 05:56:52;;;;;;;0.77;0.30;;;17.00;99.60;;;;;;5036219;28;20351;-77
2022/08/22 05:59:29;;;;;;;9.63;0.57;;;16.90;99.30;;;;;;5036447;28;20075;-77
2022/08/22 06:02:28;;;;;;;4.88;0.30;;;16.90;99.30;;;;;;5035873;28;20128;-76
2022/08/22 06:05:04;;;;;;;1.38;0.50;;;16.90;99.90;;;;;;5035776;28;20052;-75
2022/08/22 06:07:47;;;;;;;2.53;0.30;;;16.90;99.60;;;;;;5036294;28;20048;-76
2022/08/22 06:10:25;;;;;;;0.80;0.25;;;16.80;99.90;;;;;;5036138;28;20128;-74
2022/08/22 06:13:18;;;;;;;0.30;0.20;;;16.80;99.90;;;;;;5035725;28;20052;-74
2022/08/22 06:16:16;;;;;;;0.40;0.20;;;16.80;99.90;;;;;;5035862;28;20032;-75
2022/08/22 06:18:45;;;;;;;0.73;0.30;;;16.70;99.90;;;;;;5035755;28;20474;-75
2022/08/22 06:21:25;;;;;;;0.45;0.20;;;16.60;99.90;;;;;;5035933;28;20083;-75
2022/08/22 06:24:00;;;;;;;1.08;0.30;;;16.60;99.90;;;;;;5035379;28;20021;-75
2022/08/22 06:26:36;;;;;;;2.75;0.30;;;16.60;99.90;;;;;;5035533;28;20100;-75
2022/08/22 06:29:07;;;;;;;1.25;0.32;;;16.50;99.90;;;;;;5035511;28;20037;-73
2022/08/22 06:31:43;;;;;;;0.10;0.10;;;16.40;99.90;;;;;;5035386;28;20132;-75
2022/08/22 06:34:24;;;;;;;0.63;0.20;;;16.30;99.90;;;;;;5035505;28;20017;-73
2022/08/22 06:36:55;;;;;;;0.47;0.20;;;16.30;99.90;;;;;;5038347;28;20371;-75
2022/08/22 06:39:39;;;;;;;0.47;0.20;;;16.20;99.90;;;;;;5032719;28;20052;-76
2022/08/22 06:42:11;;;;;;;0.75;0.20;;;16.20;99.90;;;;;;5047761;28;20112;-77
2022/08/22 06:44:44;;;;;;;1.15;0.47;;;16.20;99.90;;;;;;5053706;28;20071;-76
2022/08/22 06:47:24;;;;;;;0.30;0.30;;;16.20;99.90;;;;;;5053402;28;20021;-76
2022/08/22 06:50:02;;;;;;;0.40;0.25;;;16.10;99.90;;;;;;5053137;28;20021;-77
2022/08/22 06:52:33;;;;;;;0.75;0.43;;;16.10;99.90;;;;;;5031058;28;20486;-76
2022/08/22 06:55:07;;;;;;;0.45;0.20;;;16.00;99.90;;;;;;5033677;28;20025;-76
2022/08/22 06:58:02;;;;;;;0.60;0.40;;;16.00;99.90;;;;;;5034793;28;20199;-76
2022/08/22 07:00:33;;;;;;;1.13;0.50;;;15.90;99.90;;;;;;5028076;28;20051;-77
2022/08/22 07:03:34;;;;;;;0.43;0.43;;;15.80;99.90;;;;;;5030673;28;20361;-77
2022/08/22 07:06:02;;;;;;;0.25;0.25;;;15.80;99.90;;;;;;5032743;28;20026;-76
2022/08/22 07:08:32;;;;;;;0.30;0.22;;;15.70;99.90;;;;;;5015104;28;20110;-77
2022/08/22 07:11:35;;;;;;;0.57;0.20;;;15.70;99.90;;;;;;5034174;28;20025;-77
2022/08/22 07:14:13;;;;;;;0.45;0.30;;;15.60;99.90;;;;;;5028901;28;20027;-77
2022/08/22 07:16:53;;;;;;;1.40;0.55;;;15.60;99.90;;;;;;5034062;28;20118;-72
2022/08/22 07:19:31;;;;;;;0.10;0.10;;;15.60;99.90;;;;;;5036463;28;20033;-76
2022/08/22 07:22:10;;;;;;;1.05;0.30;;;15.50;99.90;;;;;;5036194;28;20478;-76
2022/08/22 07:24:45;;;;;;;0.20;0.20;;;15.50;99.90;;;;;;5033654;28;20025;-75
2022/08/22 07:27:30;;;;;;;0.85;0.30;;;15.50;99.90;;;;;;5032855;28;20795;-72
2022/08/22 07:30:09;;;;;;;0.30;0.20;;;15.50;99.90;;;;;;5040720;28;20386;-72
2022/08/22 07:33:08;;;;;;;2.10;0.30;;;15.50;99.90;;;;;;5033400;28;20421;-72
2022/08/22 07:35:42;;;;;;;0.35;0.30;;;15.50;99.90;;;;;;5034173;28;20025;-76
2022/08/22 07:38:12;;;;;;;0.80;0.35;;;15.40;99.90;;;;;;5034869;28;20078;-74
2022/08/22 07:40:43;;;;;;;0.45;0.40;;;15.40;99.90;;;;;;5033931;28;20047;-72
2022/08/22 07:43:17;;;;;;;0.25;0.20;;;15.30;99.90;;;;;;5034869;28;20080;-73
2022/08/22 07:45:56;;;;;;;4.38;0.50;;;15.20;99.90;;;;;;5035613;28;20028;-74
2022/08/22 07:48:43;;;;;;;0.95;0.50;;;15.20;99.90;;;;;;5035642;28;20017;-74
2022/08/22 07:51:16;;;;;;;1.00;0.30;;;15.20;99.90;;;;;;5033724;28;20044;-71
2022/08/22 07:53:50;;;;;;;0.50;0.35;;;15.10;99.90;;;;;;5032279;28;20024;-77
2022/08/22 07:56:35;;;;;;;0.43;0.40;;;15.10;99.90;;;;;;5031124;28;20025;-77
2022/08/22 07:59:10;;;;;;;0.57;0.45;;;15.00;99.90;;;;;;5032359;28;20025;-74
2022/08/22 08:01:44;;;;;;;1.13;0.40;;;15.00;99.90;;;;;;5028457;28;20022;-77
2022/08/22 08:04:19;;;;;;;0.40;0.30;;;14.90;99.90;;;;;;5033928;28;20386;-76
2022/08/22 08:06:55;;;;;;;0.60;0.40;;;14.90;99.90;;;;;;5033185;28;20033;-76
2022/08/22 08:09:25;;;;;;;1.15;0.60;;;14.80;99.90;;;;;;5033788;28;20020;-75
2022/08/22 08:11:54;;;;;;;1.40;0.45;;;14.70;99.90;;;;;;5032257;28;20087;-76
2022/08/22 08:14:24;;;;;;;0.98;0.52;;;14.70;99.90;;;;;;5032467;28;20045;-74
2022/08/22 08:17:27;;;;;;;0.65;0.40;;;14.60;99.90;;;;;;5031570;28;20017;-75
2022/08/22 08:19:56;;;;;;;0.75;0.40;;;14.60;99.90;;;;;;5034126;28;20059;-74
2022/08/22 08:22:26;;;;;;;0.63;0.47;;;14.60;99.90;;;;;;5032091;28;20036;-74
2022/08/22 08:24:59;;;;;;;0.77;0.50;;;14.50;99.90;;;;;;5034335;28;20057;-74
2022/08/22 08:30:34;;;;;;;1.92;0.50;;;14.40;99.90;;;;;;5033301;28;20037;-78
2022/08/22 08:33:07;;;;;;;2.38;0.60;;;14.30;99.90;;;;;;5033875;28;20025;-76
2022/08/22 08:35:43;;;;;;;0.75;0.50;;;14.20;99.90;;;;;;5014459;28;20430;-77
2022/08/22 08:38:30;;;;;;;1.13;0.45;;;14.20;99.90;;;;;;5032547;28;20025;-73
2022/08/22 08:41:33;;;;;;;0.98;0.50;;;14.10;99.90;;;;;;5031878;28;20060;-72
2022/08/22 08:44:19;;;;;;;1.67;0.52;;;14.10;99.90;;;;;;5031648;28;20099;-72
2022/08/22 08:47:16;;;;;;;1.73;0.70;;;14.00;99.90;;;;;;5029068;28;20068;-75
2022/08/22 08:50:02;;;;;;;0.90;0.50;;;13.90;99.90;;;;;;5032617;28;20494;-73
2022/08/22 08:52:42;;;;;;;2.05;0.60;;;13.80;99.90;;;;;;5032564;28;20025;-76
2022/08/22 08:55:38;;;;;;;3.72;1.00;;;13.80;99.90;;;;;;5027279;28;20490;-74
2022/08/22 08:58:31;;;;;;;1.13;0.60;;;13.70;99.90;;;;;;5030409;28;20025;-78
2022/08/22 09:01:20;;;;;;;0.65;0.50;;;13.70;99.90;;;;;;5032566;28;20025;-77
2022/08/22 09:04:28;;;;;;;1.08;0.52;;;13.60;99.90;;;;;;5031620;28;20371;-72
2022/08/22 09:07:35;;;;;;;0.85;0.63;;;13.60;99.90;;;;;;5027877;28;20033;-78
2022/08/22 09:10:40;;;;;;;1.77;0.77;;;13.60;99.90;;;;;;5032886;28;20464;-71
2022/08/22 09:13:31;;;;;;;3.92;0.60;;;13.50;99.90;;;;;;5032893;28;20032;-75
2022/08/22 09:16:23;;;;;;;1.20;0.60;;;13.50;99.90;;;;;;5032472;28;20100;-76
2022/08/22 09:18:57;;;;;;;1.75;0.50;;;13.50;99.90;;;;;;5031457;28;20025;-73
2022/08/22 09:21:53;;;;;;;1.27;0.70;;;13.40;99.90;;;;;;5031985;28;20029;-72
2022/08/22 09:24:32;;;;;;;;;;;13.40;99.90;;;;;;5013163;28;20398;-77
2022/08/22 09:27:30;;;;;;;0.73;0.50;;;13.40;99.90;;;;;;5030863;28;19905;-71
2022/08/22 09:30:14;;;;;;;1.33;0.68;;;13.30;99.90;;;;;;5025872;28;20075;-74
2022/08/22 09:32:51;;;;;;;1.08;0.57;;;13.30;99.90;;;;;;5032873;28;20029;-72
2022/08/22 09:35:47;;;;;;;0.90;0.52;;;13.20;99.90;;;;;;5032432;28;20067;-73
2022/08/22 09:38:30;;;;;;;1.10;0.57;;;13.20;99.90;;;;;;5027904;28;20103;-73
2022/08/22 09:41:16;;;;;;;1.38;0.60;;;13.20;99.90;;;;;;5018307;28;20029;-75
2022/08/22 09:44:00;;;;;;;1.05;0.60;;;13.10;99.90;;;;;;5035350;28;20013;-76
2022/08/22 09:46:33;;;;;;;1.23;0.47;;;13.10;99.90;;;;;;5035791;28;20478;-72
2022/08/22 09:49:10;;;;;;;1.20;0.75;;;13.10;99.90;;;;;;5034787;28;20488;-77
2022/08/22 09:51:54;;;;;;;3.90;0.60;;;13.00;99.90;;;;;;5037851;28;20033;-75
2022/08/22 09:54:44;;;;;;;0.85;0.50;;;13.00;99.90;;;;;;5036122;28;20095;-72
2022/08/22 09:57:25;;;;;;;1.45;0.60;;;13.00;99.90;;;;;;5033765;28;20022;-71
2022/08/22 10:00:08;;;;;;;0.98;0.60;;;13.00;99.90;;;;;;5034945;28;20378;-71
2022/08/22 10:02:41;;;;;;;0.50;0.40;;;13.00;99.90;;;;;;5035999;28;20073;-72
2022/08/22 10:05:23;;;;;;;1.35;0.65;;;13.00;99.90;;;;;;5037528;28;20028;-77
2022/08/22 10:08:15;;;;;;;0.85;0.52;;;13.00;99.90;;;;;;5035840;28;20378;-72
2022/08/22 10:11:06;;;;;;;0.93;0.57;;;13.00;99.90;;;;;;5033891;28;20398;-72
2022/08/22 10:13:55;;;;;;;2.10;0.80;;;13.00;99.90;;;;;;5032480;28;20475;-75
2022/08/22 10:16:38;;;;;;;1.83;0.60;;;13.00;99.90;;;;;;5035188;28;20036;-77
2022/08/22 10:19:24;;;;;;;0.68;0.50;;;12.90;99.90;;;;;;5033524;28;20037;-77
2022/08/22 10:22:28;;;;;;;0.40;0.32;;;12.90;99.90;;;;;;5034501;28;20021;-78
2022/08/22 10:25:21;;;;;;;0.70;0.50;;;12.90;99.90;;;;;;5033954;28;20021;-77
2022/08/22 10:28:30;;;;;;;0.65;0.40;;;12.90;99.90;;;;;;5035223;28;20018;-74
2022/08/22 10:31:26;;;;;;;1.67;0.60;;;12.90;99.90;;;;;;5034206;28;20025;-73
2022/08/22 10:34:09;;;;;;;1.55;0.60;;;12.90;99.90;;;;;;5033610;28;20028;-75
2022/08/22 10:36:51;;;;;;;1.25;0.60;;;12.90;99.90;;;;;;5031801;28;20075;-72
2022/08/22 10:39:33;;;;;;;2.58;0.50;;;12.90;99.90;;;;;;5034489;28;20425;-72
2022/08/22 10:42:01;;;;;;;0.50;0.47;;;12.90;99.90;;;;;;5015516;28;20475;-76
2022/08/22 10:44:57;;;;;;;1.95;0.70;;;12.90;99.90;;;;;;5033550;28;20075;-74
2022/08/22 10:47:56;;;;;;;0.90;0.50;;;12.90;99.90;;;;;;5034732;28;20478;-77
2022/08/22 10:50:35;;;;;;;0.47;0.47;;;12.90;99.90;;;;;;5031881;28;20029;-77
2022/08/22 10:53:34;;;;;;;0.70;0.40;;;12.90;99.90;;;;;;5033493;28;20151;-72
2022/08/22 10:56:14;;;;;;;1.55;0.68;;;12.90;99.90;;;;;;5015287;28;20037;-78
2022/08/22 10:58:49;;;;;;;6.70;0.65;;;12.90;99.90;;;;;;5032653;28;20418;-72
2022/08/22 11:01:18;;;;;;;1.75;0.50;;;12.90;99.90;;;;;;5015697;28;20025;-76
2022/08/22 11:03:56;;;;;;;1.02;0.47;;;12.90;99.90;;;;;;5033248;28;20491;-78
2022/08/22 11:07:04;;;;;;;0.73;0.43;;;12.90;99.90;;;;;;5034171;28;20028;-75
2022/08/22 11:09:37;;;;;;;1.92;0.50;;;13.00;99.90;;;;;;5033061;28;20143;-78
2022/08/22 11:12:23;;;;;;;0.47;0.30;;;13.00;99.90;;;;;;5033640;28;20040;-73
2022/08/22 11:14:57;;;;;;;0.90;0.60;;;13.00;99.90;;;;;;5032040;28;20049;-77
2022/08/22 11:17:52;;;;;;;0.80;0.40;;;13.00;99.90;;;;;;5034910;28;20053;-72
2022/08/22 11:20:41;;;;;;;0.38;0.30;;;13.00;99.90;;;;;;5034407;28;20025;-78
2022/08/22 11:23:35;;;;;;;1.05;0.55;;;13.00;99.90;;;;;;5033292;28;20096;-75
2022/08/22 11:26:12;;;;;;;1.92;0.40;;;13.00;99.90;;;;;;5037104;28;20477;-77
2022/08/22 11:29:10;;;;;;;0.40;0.30;;;13.10;99.90;;;;;;5034020;28;20029;-74
2022/08/22 11:32:04;;;;;;;0.57;0.38;;;13.00;99.90;;;;;;5031801;28;20033;-78
2022/08/22 11:34:51;;;;;;;2.17;0.75;;;13.10;99.90;;;;;;5033622;28;20048;-73
2022/08/22 11:37:46;;;;;;;0.47;0.40;;;13.10;99.90;;;;;;5032325;28;20036;-72
2022/08/22 11:40:41;;;;;;;1.65;0.52;;;13.10;99.90;;;;;;5016524;28;20393;-76
2022/08/22 11:43:15;;;;;;;0.50;0.43;;;13.10;99.90;;;;;;5036261;28;20059;-72
2022/08/22 11:45:50;;;;;;;1.57;0.83;;;13.10;99.90;;;;;;5032751;28;20021;-74
2022/08/22 11:48:26;;;;;;;0.87;0.70;;;13.10;99.90;;;;;;5033163;28;20255;-72
2022/08/22 11:51:21;;;;;;;0.43;0.30;;;13.10;99.90;;;;;;5032399;28;20037;-75
2022/08/22 11:53:59;;;;;;;1.50;0.60;;;13.10;99.90;;;;;;5030447;28;20048;-78
2022/08/22 11:56:44;;;;;;;2.10;0.50;;;13.10;99.90;;;;;;5032729;28;20025;-78
2022/08/22 11:59:24;;;;;;;0.60;0.40;;;13.10;99.90;;;;;;5031753;28;20520;-78
2022/08/22 12:01:58;;;;;;;1.05;0.30;;;13.10;99.90;;;;;;5036901;28;20490;-76
2022/08/22 12:04:32;;;;;;;0.68;0.40;;;13.00;99.90;;;;;;5040153;28;20405;-72
2022/08/22 12:07:32;;;;;;;0.40;0.30;;;13.10;99.90;;;;;;5045565;28;20104;-75
2022/08/22 12:10:12;;;;;;;0.60;0.30;;;13.10;99.90;;;;;;5039102;28;20470;-77
2022/08/22 12:13:06;;;;;;;1.15;0.40;;;13.10;99.90;;;;;;5038489;28;20421;-75
2022/08/22 12:16:22;;;;;;;1.00;0.40;;;13.10;99.90;;;;;;5033829;28;20057;-76
2022/08/22 12:19:23;;;;;;;0.55;0.40;;;13.00;99.90;;;;;;5025315;28;20102;-76
2022/08/22 12:22:09;;;;;;;0.70;0.40;;;13.00;99.90;;;;;;5025519;28;20033;-75
2022/08/22 12:24:48;;;;;;;3.42;0.30;;;13.00;99.90;;;;;;5028635;28;20017;-75
2022/08/22 12:28:03;;;;;;;0.73;0.30;;;13.00;99.90;;;;;;5029974;28;20029;-77
2022/08/22 12:30:38;;;;;;;0.63;0.32;;;13.00;99.90;;;;;;4990871;28;20023;-72
2022/08/22 12:33:14;;;;;;;1.23;0.50;;;13.00;99.90;;;;;;5028262;28;20075;-79
2022/08/22 12:36:05;;;;;;;0.63;0.60;;;13.00;99.90;;;;;;5031829;28;20022;-75
2022/08/22 12:38:55;;;;;;;0.65;0.30;;;12.90;99.90;;;;;;4993975;28;20033;-73
2022/08/22 12:42:00;;;;;;;1.25;0.55;;;12.90;99.90;;;;;;5031587;28;20018;-79
2022/08/22 12:44:53;;;;;;;0.93;0.38;;;12.90;99.90;;;;;;4992241;28;20386;-78
2022/08/22 12:47:43;;;;;;;0.43;0.30;;;13.00;99.90;;;;;;5022329;28;20029;-77
2022/08/22 12:50:27;;;;;;;0.63;0.32;;;13.00;99.90;;;;;;5032718;28;20022;-78
2022/08/22 12:53:05;;;;;;;2.15;0.45;;;13.00;99.90;;;;;;5030666;28;20136;-71
2022/08/22 12:56:01;;;;;;;0.75;0.40;;;13.00;99.90;;;;;;5030516;28;20021;-78
2022/08/22 12:58:37;;;;;;;3.53;0.57;;;13.00;99.90;;;;;;5027777;28;20021;-75
2022/08/22 13:01:07;;;;;;;1.73;0.68;;;13.00;99.90;;;;;;5032809;28;20547;-75
2022/08/22 13:03:43;;;;;;;0.88;0.40;;;13.00;99.90;;;;;;5030529;28;20053;-77
2022/08/22 13:06:34;;;;;;;1.02;0.60;;;13.00;99.90;;;;;;5030052;28;20467;-75
2022/08/22 13:09:24;;;;;;;0.68;0.50;;;13.00;99.90;;;;;;5031771;28;20364;-72
2022/08/22 13:11:55;;;;;;;0.80;0.50;;;13.00;99.90;;;;;;5032704;28;20120;-77
2022/08/22 13:14:25;;;;;;;1.10;0.45;;;13.00;99.90;;;;;;5035509;28;20021;-76
2022/08/22 13:16:58;;;;;;;0.82;0.50;;;12.90;99.90;;;;;;5037267;28;20387;-77
2022/08/22 13:19:34;;;;;;;0.70;0.50;;;13.00;99.90;;;;;;5036964;28;20529;-72
2022/08/22 13:22:18;;;;;;;1.88;0.35;;;13.00;99.90;;;;;;5037072;28;20025;-78
2022/08/22 13:24:50;;;;;;;0.38;0.25;;;13.00;99.90;;;;;;5036859;28;20071;-79
2022/08/22 13:27:33;;;;;;;0.77;0.50;;;13.00;99.90;;;;;;5036828;28;20021;-78
2022/08/22 13:30:06;;;;;;;0.43;0.32;;;13.00;99.90;;;;;;5037122;28;20013;-79
2022/08/22 13:32:41;;;;;;;0.63;0.38;;;13.00;99.90;;;;;;5036788;28;20500;-77
2022/08/22 13:35:17;;;;;;;0.75;0.60;;;13.00;99.90;;;;;;5036885;28;20018;-78
2022/08/22 13:37:49;;;;;;;0.50;0.40;;;13.00;99.90;;;;;;5036880;28;20033;-71
2022/08/22 13:40:28;;;;;;;0.60;0.43;;;13.00;99.90;;;;;;5036680;28;20021;-78
2022/08/22 13:43:20;;;;;;;0.40;0.40;;;13.00;99.90;;;;;;5036584;28;20525;-78
2022/08/22 13:45:58;;;;;;;0.50;0.40;;;13.00;99.90;;;;;;5036440;28;20033;-73
2022/08/22 13:48:44;;;;;;;3.55;0.50;;;13.00;99.90;;;;;;5036670;28;20486;-72
2022/08/22 13:51:34;;;;;;;0.50;0.50;;;12.90;99.90;;;;;;5036402;28;20022;-77
2022/08/22 13:54:37;;;;;;;1.50;0.55;;;12.90;99.90;;;;;;5018351;28;20541;-77
2022/08/22 13:57:23;;;;;;;0.75;0.47;;;12.90;99.90;;;;;;5036352;28;20025;-74
2022/08/22 14:00:30;;;;;;;1.25;0.50;;;12.90;99.90;;;;;;5036764;28;20104;-76
2022/08/22 14:03:09;;;;;;;;;;;12.90;99.90;;;;;;5036345;28;20116;-78
2022/08/22 14:05:44;;;;;;;2.63;0.55;;;12.90;99.90;;;;;;5036322;28;20328;-78
2022/08/22 14:08:35;;;;;;;0.60;0.40;;;12.90;99.90;;;;;;5036362;28;20021;-78
2022/08/22 14:11:40;;;;;;;0.68;0.45;;;12.90;99.90;;;;;;5035911;28;20057;-76
2022/08/22 14:14:09;;;;;;;0.30;0.30;;;12.90;99.90;;;;;;5013090;28;20561;-76
2022/08/22 14:16:50;;;;;;;1.77;0.70;;;12.80;99.90;;;;;;5035943;28;20137;-72
2022/08/22 14:19:40;;;;;;;0.75;0.43;;;12.80;99.90;;;;;;5036481;28;20021;-79